Terminal Aerodrome Forecast
Issued by NWS

Home | Current Version | Previous Version | Text Only | Print | Product List | Glossary On
Versions: 1 2 3 4 5 6 7 8 9 10 11 12 13
000
FTUS46 KOTX 240535
TAFMWH
TAF
KMWH 240535Z 2406/2506 34006KT P6SM FEW100
     FM241600 01012KT P6SM SKC
     FM241800 02010G17KT P6SM FEW090
     FM250300 36007KT P6SM SKC=

USA.gov is the U.S. government's official web portal to all federal, state and local government web resources and services.